Whitehorse/Erik Nielsen International Airport

Airport
ICAO code: 
CYXY
IATA Code: 
YXY
Summary
ICAO Region: 
NAM
Territory: 
Location: 
Whitehorse, Yukon,
Serving: 
Whitehorse
Elevation: 
2317 ft
Coordinates: 
Aerial View: 
60° 42' 46.452" N, 135° 4' 10.526" W
Metar
Observation
CYXY 041600Z 34006KT 15SM -SN OVC024 M26/M30 A3016 RMK SC8 SLP301
Station
Whitehorse, Y. T.
Date/Time
2021-12-04 16:00:00
Wind direction
340°
Wind speed
06 kts
Lowest cloud amount
overcast
Temperature
-26°C
Dew point
-30°C
Humidity
68%
Weather condition
light snow

Description

Erik Nielsen Whitehorse International Airport is located in Whitehorse, Yukon, Canada.

Climatology

Tundra climate (Köppen climate classification ET) - warmest month has an average temperature of 0 - 10 degrees C.

Runways

Designator Length Width Surface Rops
1/19 632 23 ASP Yes/Yes
13L/31R 1219 24 ASP Yes/Yes
13R/31L 2895 46 ASP Yes/Yes
Airport map: 
Aerial View: 

Accidents and Serious Incidents at or in the vicinity of CYXY

SKYbrary Partners:

Safety knowledge contributed by: